Time;durP1;ratioP1;P1;durP2;ratioP2;P2;SDS_P1;SDS_P2;PMS_P1;PMS_P2;Temp;Humidity;BMP_temperature;BMP_pressure;BME280_temperature;BME280_humidity;BME280_pressure;Samples;Min_cycle;Max_cycle;Signal;HPM_P1;HPM_P2
2021/12/23 00:01:42;;;;;;;15.65;10.60;;;2.00;77.40;;;;;;5085587;28;20047;-83
2021/12/23 00:04:10;;;;;;;17.63;11.55;;;2.10;77.40;;;;;;5097100;28;20107;-84
2021/12/23 00:06:36;;;;;;;12.52;8.38;;;2.20;77.20;;;;;;5075127;28;20066;-89
2021/12/23 00:09:04;;;;;;;13.45;9.68;;;2.20;77.30;;;;;;5098382;28;20103;-88
2021/12/23 00:11:30;;;;;;;15.82;10.38;;;2.30;77.30;;;;;;5093503;28;20020;-85
2021/12/23 00:14:04;;;;;;;17.83;11.93;;;2.40;77.00;;;;;;5086037;28;20501;-86
2021/12/23 00:16:43;;;;;;;12.07;8.68;;;2.40;76.80;;;;;;5075925;28;20031;-85
2021/12/23 00:19:36;;;;;;;14.15;10.07;;;2.40;77.40;;;;;;5089861;28;20020;-84
2021/12/23 00:24:49;;;;;;;14.23;9.43;;;2.50;76.60;;;;;;5087728;28;20462;-85
2021/12/23 00:27:14;;;;;;;13.73;9.15;;;2.50;76.50;;;;;;5078042;28;20651;-84
2021/12/23 00:29:40;;;;;;;12.70;8.75;;;2.50;76.20;;;;;;5083985;28;20029;-84
2021/12/23 00:32:08;;;;;;;19.70;13.93;;;2.60;76.30;;;;;;5093663;28;20031;-85
2021/12/23 00:34:37;;;;;;;13.93;10.38;;;2.60;75.90;;;;;;5106768;28;20055;-85
2021/12/23 00:37:05;;;;;;;15.02;10.57;;;2.60;75.80;;;;;;5093420;28;20032;-87
2021/12/23 00:39:34;;;;;;;18.05;12.25;;;2.50;75.80;;;;;;5075668;28;20023;-87
2021/12/23 00:42:06;;;;;;;14.80;10.55;;;2.50;75.80;;;;;;5075443;28;20051;-87
2021/12/23 00:44:33;;;;;;;14.07;9.75;;;2.40;75.80;;;;;;5086110;28;20020;-87
2021/12/23 00:46:58;;;;;;;17.35;10.15;;;2.40;75.80;;;;;;5076544;28;20017;-87
2021/12/23 00:49:24;;;;;;;17.02;10.48;;;2.40;75.60;;;;;;5077460;28;20416;-87
2021/12/23 00:51:50;;;;;;;14.57;10.18;;;2.40;76.40;;;;;;5076619;28;20032;-88
2021/12/23 00:54:15;;;;;;;16.75;11.55;;;2.50;75.90;;;;;;5076936;28;20021;-87
2021/12/23 00:56:41;;;;;;;17.05;11.50;;;2.50;75.80;;;;;;5083563;28;20619;-87
2021/12/23 00:59:08;;;;;;;17.92;12.77;;;2.50;75.80;;;;;;5076364;28;20058;-87
2021/12/23 01:01:34;;;;;;;19.30;12.15;;;2.40;75.70;;;;;;5074873;28;20024;-86
2021/12/23 01:04:00;;;;;;;18.23;12.50;;;2.40;75.60;;;;;;5075769;28;20166;-88
2021/12/23 01:06:26;;;;;;;15.90;11.57;;;2.40;75.60;;;;;;5077233;28;20487;-87
2021/12/23 01:08:51;;;;;;;14.52;9.95;;;2.40;75.70;;;;;;5085526;28;20031;-87
2021/12/23 01:11:17;;;;;;;12.65;8.48;;;2.50;75.90;;;;;;5071900;28;20035;-86
2021/12/23 01:13:59;;;;;;;10.52;7.30;;;2.60;76.10;;;;;;5070439;28;20035;-87
2021/12/23 01:16:36;;;;;;;18.55;12.77;;;2.80;76.20;;;;;;5070880;28;20024;-88
2021/12/23 01:19:10;;;;;;;16.25;11.00;;;2.70;75.50;;;;;;5069563;28;20039;-86
2021/12/23 01:21:35;;;;;;;15.60;10.48;;;2.70;75.50;;;;;;5085202;28;20016;-88
2021/12/23 01:24:01;;;;;;;15.25;10.10;;;2.70;75.60;;;;;;5076184;28;20028;-88
2021/12/23 01:26:26;;;;;;;13.48;9.57;;;2.80;75.80;;;;;;5091454;28;20107;-85
2021/12/23 01:28:58;;;;;;;16.30;11.05;;;2.70;75.40;;;;;;5092626;28;20028;-88
2021/12/23 01:31:26;;;;;;;16.60;11.87;;;2.70;75.40;;;;;;5100336;28;20424;-86
2021/12/23 01:33:52;;;;;;;15.10;10.10;;;2.60;75.10;;;;;;5085502;28;20100;-87
2021/12/23 01:36:18;;;;;;;14.63;9.90;;;2.60;75.30;;;;;;5075315;28;20482;-87
2021/12/23 01:38:44;;;;;;;18.52;12.45;;;2.50;75.10;;;;;;5088868;28;20134;-88
2021/12/23 01:41:10;;;;;;;16.38;11.05;;;2.40;75.00;;;;;;5089137;28;20489;-88
2021/12/23 01:43:35;;;;;;;15.70;10.88;;;2.40;75.20;;;;;;5078626;28;20116;-88
2021/12/23 01:46:01;;;;;;;14.75;9.75;;;2.40;75.40;;;;;;5068915;28;20487;-87
2021/12/23 01:48:27;;;;;;;12.20;9.02;;;2.40;75.50;;;;;;5070662;28;20024;-89
2021/12/23 01:50:52;;;;;;;13.40;9.30;;;2.40;75.40;;;;;;5071539;28;20046;-89
2021/12/23 01:53:18;;;;;;;12.15;8.43;;;2.50;75.50;;;;;;5085877;28;20103;-86
2021/12/23 01:55:44;;;;;;;15.63;10.68;;;2.60;75.50;;;;;;5089866;28;20115;-88
2021/12/23 01:58:13;;;;;;;10.43;7.40;;;2.70;75.50;;;;;;5087303;28;20032;-90
2021/12/23 02:00:45;;;;;;;17.05;11.80;;;2.70;75.30;;;;;;5077527;28;20050;-92
2021/12/23 02:03:13;;;;;;;15.13;9.73;;;2.70;75.20;;;;;;5090466;28;20386;-94
2021/12/23 02:05:39;;;;;;;12.48;8.18;;;2.70;75.20;;;;;;5075351;28;20024;-93
2021/12/23 02:08:04;;;;;;;14.25;9.10;;;2.70;75.20;;;;;;5075982;28;20031;-94
2021/12/23 02:10:30;;;;;;;13.35;9.02;;;2.70;75.20;;;;;;5075697;28;20025;-93
2021/12/23 02:12:57;;;;;;;13.75;9.82;;;2.80;75.40;;;;;;5075625;28;20028;-94
2021/12/23 02:15:22;;;;;;;17.95;11.60;;;2.80;75.00;;;;;;5076279;28;20032;-92
2021/12/23 02:17:49;;;;;;;16.05;10.75;;;2.70;74.90;;;;;;5085790;28;20036;-93
2021/12/23 02:20:17;;;;;;;17.70;11.68;;;2.80;74.90;;;;;;5082516;28;20107;-93
2021/12/23 02:22:43;;;;;;;15.88;10.70;;;2.80;74.70;;;;;;5075433;28;20024;-94
2021/12/23 02:25:11;;;;;;;14.55;9.63;;;2.80;74.70;;;;;;5075281;28;20499;-93
2021/12/23 02:27:37;;;;;;;14.55;9.70;;;2.90;74.70;;;;;;5089428;28;20536;-94
2021/12/23 02:30:08;;;;;;;16.17;10.82;;;3.00;74.80;;;;;;5080170;28;20020;-94
2021/12/23 02:32:37;;;;;;;16.88;10.55;;;3.10;74.70;;;;;;5088208;28;20120;-95
2021/12/23 02:35:05;;;;;;;18.05;11.75;;;3.00;74.40;;;;;;5095109;28;20032;-93
2021/12/23 02:37:31;;;;;;;16.17;11.30;;;3.00;74.40;;;;;;5095727;28;20567;-93
2021/12/23 02:39:56;;;;;;;14.98;10.30;;;3.00;74.30;;;;;;5093984;28;20016;-93
2021/12/23 02:42:24;;;;;;;13.77;10.30;;;3.00;74.20;;;;;;5076268;28;20498;-93
2021/12/23 02:44:52;;;;;;;16.88;11.80;;;2.90;74.20;;;;;;5073698;28;20023;-93
2021/12/23 02:47:18;;;;;;;18.50;11.60;;;2.90;74.40;;;;;;5074770;28;20078;-88
2021/12/23 02:49:44;;;;;;;14.73;10.35;;;2.90;74.40;;;;;;5077457;28;20016;-90
2021/12/23 02:52:10;;;;;;;17.58;11.98;;;2.90;74.40;;;;;;5094265;28;20020;-88
2021/12/23 02:54:35;;;;;;;13.77;9.70;;;3.00;74.40;;;;;;5092491;28;20489;-89
2021/12/23 02:57:01;;;;;;;19.77;13.68;;;3.00;74.50;;;;;;5083886;28;20048;-88
2021/12/23 02:59:26;;;;;;;15.27;10.63;;;3.00;74.10;;;;;;5072258;28;20028;-88
2021/12/23 03:01:52;;;;;;;12.90;8.23;;;2.80;74.10;;;;;;5084947;28;20016;-88
2021/12/23 03:04:18;;;;;;;15.48;10.25;;;2.80;74.40;;;;;;5090204;28;20028;-87
2021/12/23 03:06:43;;;;;;;16.15;10.50;;;2.80;74.20;;;;;;5086865;28;20031;-90
2021/12/23 03:09:09;;;;;;;16.95;11.20;;;2.90;74.50;;;;;;5078051;28;20031;-95
2021/12/23 03:11:35;;;;;;;14.55;10.05;;;2.80;74.30;;;;;;5077548;28;20025;-94
2021/12/23 03:14:00;;;;;;;17.77;12.90;;;2.90;74.60;;;;;;5082584;28;20409;-91
2021/12/23 03:16:33;;;;;;;12.38;8.63;;;2.90;74.30;;;;;;5073877;28;20029;-91
2021/12/23 03:18:58;;;;;;;15.52;10.18;;;2.90;74.40;;;;;;5083405;28;20134;-90
2021/12/23 03:21:24;;;;;;;15.95;11.25;;;2.90;74.40;;;;;;5092265;28;20060;-89
2021/12/23 03:23:51;;;;;;;14.55;10.88;;;2.90;74.20;;;;;;5093252;28;20409;-91
2021/12/23 03:26:17;;;;;;;17.60;12.32;;;2.80;74.30;;;;;;5092079;28;20024;-91
2021/12/23 03:28:43;;;;;;;13.55;9.60;;;2.80;74.40;;;;;;5094108;28;20020;-90
2021/12/23 03:31:08;;;;;;;16.92;12.20;;;2.80;74.80;;;;;;5092685;28;20074;-90
2021/12/23 03:33:34;;;;;;;18.23;12.38;;;2.70;74.60;;;;;;5100442;28;20013;-88
2021/12/23 03:36:00;;;;;;;18.77;13.32;;;2.60;74.90;;;;;;5083957;28;20526;-89
2021/12/23 03:38:27;;;;;;;18.13;12.68;;;2.60;74.90;;;;;;5077064;28;20036;-88
2021/12/23 03:40:53;;;;;;;17.08;12.38;;;2.50;74.70;;;;;;5076567;28;20020;-88
2021/12/23 03:43:19;;;;;;;19.05;13.15;;;2.40;74.80;;;;;;5072260;28;20032;-88
2021/12/23 03:45:47;;;;;;;18.50;11.98;;;2.40;75.00;;;;;;5082384;28;20376;-88
2021/12/23 03:48:14;;;;;;;14.48;10.02;;;2.40;75.20;;;;;;5092465;28;20024;-88
2021/12/23 03:50:41;;;;;;;15.90;11.02;;;2.40;75.40;;;;;;5081052;28;20032;-89
2021/12/23 03:53:06;;;;;;;15.23;10.68;;;2.40;75.30;;;;;;5093116;28;20020;-86
2021/12/23 03:55:32;;;;;;;18.02;12.30;;;2.50;75.30;;;;;;5072884;28;20278;-86
2021/12/23 03:57:58;;;;;;;20.90;14.88;;;2.50;75.30;;;;;;5077372;28;20036;-87
2021/12/23 04:00:25;;;;;;;20.13;13.80;;;2.40;74.90;;;;;;5081748;28;20024;-90
2021/12/23 04:02:51;;;;;;;20.67;13.55;;;2.30;75.00;;;;;;5073059;28;20054;-89
2021/12/23 04:05:18;;;;;;;16.95;10.93;;;2.30;75.10;;;;;;5073078;28;20024;-88
2021/12/23 04:07:44;;;;;;;17.63;12.93;;;2.30;75.20;;;;;;5092931;28;20028;-90
2021/12/23 04:10:12;;;;;;;18.17;12.82;;;2.30;75.30;;;;;;5080242;28;20029;-91
2021/12/23 04:12:40;;;;;;;19.80;13.02;;;2.20;75.30;;;;;;5072171;28;20021;-94
2021/12/23 04:15:06;;;;;;;19.00;13.60;;;2.20;75.50;;;;;;5072578;28;20111;-90
2021/12/23 04:17:32;;;;;;;21.38;14.27;;;2.10;75.60;;;;;;5080678;28;20035;-91
2021/12/23 04:20:09;;;;;;;17.27;11.02;;;2.10;75.60;;;;;;5089854;28;20020;-90
2021/12/23 04:22:35;;;;;;;20.58;13.45;;;2.10;75.80;;;;;;5092054;28;20435;-91
2021/12/23 04:25:01;;;;;;;19.70;13.90;;;2.10;75.70;;;;;;5082228;28;20032;-91
2021/12/23 04:27:26;;;;;;;17.33;12.07;;;2.10;75.70;;;;;;5092802;28;20040;-91
2021/12/23 04:29:52;;;;;;;18.95;12.10;;;2.10;75.70;;;;;;5093025;28;20475;-92
2021/12/23 04:32:17;;;;;;;18.27;12.57;;;2.10;75.70;;;;;;5092455;28;20016;-92
2021/12/23 04:34:43;;;;;;;18.35;12.30;;;2.10;75.60;;;;;;5092738;28;20040;-92
2021/12/23 04:37:08;;;;;;;18.30;11.90;;;2.10;75.60;;;;;;5088913;28;20426;-90
2021/12/23 04:39:34;;;;;;;17.35;11.65;;;2.20;75.80;;;;;;5084917;28;20035;-89
2021/12/23 04:41:59;;;;;;;19.70;14.00;;;2.20;75.70;;;;;;5092223;28;20035;-89
2021/12/23 04:44:25;;;;;;;21.02;13.35;;;2.20;75.70;;;;;;5091582;28;20085;-89
2021/12/23 04:46:51;;;;;;;17.95;12.10;;;2.10;75.40;;;;;;5070506;28;20534;-89
2021/12/23 04:49:16;;;;;;;16.23;11.07;;;2.10;76.10;;;;;;5072185;28;20027;-89
2021/12/23 04:51:42;;;;;;;15.68;11.07;;;2.10;75.50;;;;;;5091295;28;20020;-86
2021/12/23 04:54:07;;;;;;;17.73;11.63;;;2.20;75.70;;;;;;5081975;28;20399;-84
2021/12/23 04:56:33;;;;;;;19.25;11.82;;;2.30;75.50;;;;;;5085166;28;20025;-84
2021/12/23 04:58:58;;;;;;;21.63;14.95;;;2.30;75.40;;;;;;5082259;28;20123;-84
2021/12/23 05:01:29;;;;;;;20.67;13.68;;;2.30;75.10;;;;;;5084206;28;20085;-84
2021/12/23 05:03:55;;;;;;;18.42;12.80;;;2.20;75.00;;;;;;5089424;28;20111;-84
2021/12/23 05:06:21;;;;;;;15.77;10.95;;;2.20;75.20;;;;;;5075699;28;20024;-84
2021/12/23 05:08:47;;;;;;;20.67;14.57;;;2.40;75.40;;;;;;5069304;28;20032;-85
2021/12/23 05:11:12;;;;;;;23.60;15.27;;;2.50;75.30;;;;;;5071006;28;20029;-85
2021/12/23 05:13:38;;;;;;;20.55;14.38;;;2.40;74.90;;;;;;5070228;28;20085;-84
2021/12/23 05:16:04;;;;;;;18.33;13.10;;;2.30;74.60;;;;;;5069637;28;20099;-89
2021/12/23 05:18:30;;;;;;;22.80;16.02;;;2.30;74.80;;;;;;5085158;28;20058;-92
2021/12/23 05:20:56;;;;;;;21.77;14.55;;;2.30;74.70;;;;;;5084793;28;20051;-91
2021/12/23 05:23:21;;;;;;;18.48;13.07;;;2.20;74.60;;;;;;5073569;28;20099;-91
2021/12/23 05:25:47;;;;;;;19.40;13.20;;;2.20;74.80;;;;;;5085369;28;20107;-92
2021/12/23 05:28:13;;;;;;;17.88;12.10;;;2.30;74.80;;;;;;5090549;28;20035;-91
2021/12/23 05:30:39;;;;;;;19.52;12.57;;;2.40;75.00;;;;;;5086342;28;20027;-92
2021/12/23 05:33:05;;;;;;;23.27;14.68;;;2.40;75.00;;;;;;5075528;28;20017;-92
2021/12/23 05:35:31;;;;;;;17.35;11.07;;;2.40;74.80;;;;;;5073310;28;20046;-92
2021/12/23 05:37:57;;;;;;;20.92;13.32;;;2.40;74.80;;;;;;5083503;28;20036;-91
2021/12/23 05:40:24;;;;;;;18.75;11.82;;;2.50;74.90;;;;;;5094260;28;20112;-90
2021/12/23 05:42:50;;;;;;;23.42;15.75;;;2.60;74.90;;;;;;5094762;28;20065;-89
2021/12/23 05:45:17;;;;;;;20.02;14.02;;;2.60;74.60;;;;;;5073652;28;20100;-88
2021/12/23 05:47:45;;;;;;;24.23;16.50;;;2.50;74.40;;;;;;5094595;28;20035;-89
2021/12/23 05:50:13;;;;;;;25.38;17.10;;;2.50;74.50;;;;;;5074776;28;20039;-90
2021/12/23 05:52:39;;;;;;;27.35;17.65;;;2.40;74.40;;;;;;5076164;28;20044;-91
2021/12/23 05:55:06;;;;;;;22.58;14.30;;;2.30;74.10;;;;;;5073531;28;20050;-90
2021/12/23 05:57:32;;;;;;;20.85;13.30;;;2.30;74.30;;;;;;5075226;28;20036;-89
2021/12/23 05:59:58;;;;;;;24.13;15.13;;;2.30;74.50;;;;;;5075193;28;20025;-89
2021/12/23 06:02:24;;;;;;;26.13;16.45;;;2.40;74.60;;;;;;5074825;28;20035;-89
2021/12/23 06:04:49;;;;;;;26.45;18.60;;;2.30;74.40;;;;;;5073543;28;20017;-89
2021/12/23 06:07:15;;;;;;;23.33;14.95;;;2.30;74.30;;;;;;5075072;28;20028;-89
2021/12/23 06:09:40;;;;;;;29.52;19.30;;;2.20;74.40;;;;;;5074387;28;20150;-90
2021/12/23 06:12:06;;;;;;;23.17;15.02;;;2.20;74.50;;;;;;5074942;28;20048;-88
2021/12/23 06:14:32;;;;;;;29.80;19.00;;;2.20;74.50;;;;;;5087680;28;20032;-92
2021/12/23 06:16:58;;;;;;;17.85;12.20;;;2.30;74.60;;;;;;5102211;28;20058;-93
2021/12/23 06:19:23;;;;;;;30.42;19.73;;;2.30;74.60;;;;;;5095333;28;20035;-93
2021/12/23 06:21:49;;;;;;;27.02;17.80;;;2.20;74.30;;;;;;5095753;28;20358;-92
2021/12/23 06:24:14;;;;;;;26.30;16.58;;;2.20;74.10;;;;;;5094359;28;20549;-93
2021/12/23 06:26:40;;;;;;;24.55;15.57;;;2.10;74.20;;;;;;5087528;28;20024;-92
2021/12/23 06:29:06;;;;;;;23.52;15.88;;;2.10;74.60;;;;;;5087883;28;20509;-88
2021/12/23 06:31:32;;;;;;;23.88;15.68;;;2.10;74.60;;;;;;5097512;28;20027;-87
2021/12/23 06:33:58;;;;;;;27.15;17.15;;;2.10;74.60;;;;;;5105891;28;20032;-89
2021/12/23 06:36:24;;;;;;;26.48;16.80;;;2.20;74.60;;;;;;5105809;28;20020;-89
2021/12/23 06:38:50;;;;;;;25.95;16.85;;;2.10;74.40;;;;;;5083425;28;20051;-89
2021/12/23 06:41:17;;;;;;;28.30;17.35;;;2.10;74.60;;;;;;5080009;28;20024;-89
2021/12/23 06:43:43;;;;;;;23.45;14.57;;;2.10;74.60;;;;;;5075339;28;20037;-86
2021/12/23 06:46:09;;;;;;;23.92;15.20;;;2.10;74.80;;;;;;5101270;28;20448;-88
2021/12/23 06:48:34;;;;;;;32.25;21.50;;;2.20;74.70;;;;;;5100386;28;20108;-87
2021/12/23 06:51:01;;;;;;;26.13;16.67;;;2.10;74.40;;;;;;5073428;28;20032;-90
2021/12/23 06:53:27;;;;;;;25.10;16.45;;;2.00;74.50;;;;;;5096738;28;20054;-88
2021/12/23 06:55:55;;;;;;;24.77;16.20;;;2.00;74.60;;;;;;5093300;28;20027;-89
2021/12/23 06:58:22;;;;;;;28.83;17.40;;;2.10;74.90;;;;;;5096531;28;20119;-89
2021/12/23 07:00:50;;;;;;;27.25;18.17;;;2.10;74.80;;;;;;5093594;28;20020;-92
2021/12/23 07:03:16;;;;;;;23.75;15.65;;;2.10;74.80;;;;;;5092995;28;20027;-92
2021/12/23 07:05:42;;;;;;;25.52;16.60;;;2.10;74.80;;;;;;5078502;28;20533;-94
2021/12/23 07:08:13;;;;;;;29.83;18.50;;;2.00;74.60;;;;;;5089665;28;20035;-89
2021/12/23 07:10:39;;;;;;;31.23;19.27;;;2.00;74.70;;;;;;5113580;28;20051;-92
2021/12/23 07:13:05;;;;;;;27.73;16.67;;;1.90;74.80;;;;;;5080438;28;20070;-92
2021/12/23 07:15:32;;;;;;;25.45;16.30;;;1.80;74.80;;;;;;5090564;28;20028;-93
2021/12/23 07:17:59;;;;;;;23.98;15.13;;;1.80;74.90;;;;;;5088848;28;20025;-92
2021/12/23 07:20:26;;;;;;;26.55;16.00;;;1.90;75.10;;;;;;5083409;28;20024;-92
2021/12/23 07:22:52;;;;;;;25.27;15.55;;;1.80;75.20;;;;;;5100711;28;20020;-93
2021/12/23 07:25:17;;;;;;;22.10;13.80;;;1.80;75.20;;;;;;5096762;28;20035;-91
2021/12/23 07:27:44;;;;;;;25.85;15.68;;;1.80;75.20;;;;;;5097538;28;20092;-93
2021/12/23 07:30:13;;;;;;;20.55;12.85;;;1.90;75.40;;;;;;5088736;28;20017;-90
2021/12/23 07:32:38;;;;;;;22.48;14.43;;;1.80;75.30;;;;;;5109528;28;20115;-91
2021/12/23 07:35:05;;;;;;;29.10;19.15;;;1.80;75.40;;;;;;5109905;28;20047;-93
2021/12/23 07:37:31;;;;;;;28.38;17.23;;;1.90;75.30;;;;;;5108927;28;20020;-93
2021/12/23 07:39:56;;;;;;;24.48;15.65;;;1.80;75.30;;;;;;5108259;28;20047;-92
2021/12/23 07:42:24;;;;;;;27.38;17.55;;;1.80;75.50;;;;;;5103665;28;20473;-92
2021/12/23 07:44:50;;;;;;;22.35;13.90;;;1.80;75.40;;;;;;5088064;28;20179;-92
2021/12/23 07:47:17;;;;;;;27.33;16.65;;;1.80;75.50;;;;;;5091910;28;20032;-93
2021/12/23 07:49:43;;;;;;;24.23;14.85;;;1.90;75.50;;;;;;5090616;28;20035;-92
2021/12/23 07:52:09;;;;;;;27.48;16.58;;;1.90;75.50;;;;;;5091320;28;20080;-91
2021/12/23 07:54:37;;;;;;;32.38;19.77;;;1.90;75.50;;;;;;5086347;28;20024;-92
2021/12/23 07:57:04;;;;;;;24.23;15.45;;;1.90;75.40;;;;;;5102457;28;20474;-91
2021/12/23 07:59:30;;;;;;;25.88;15.68;;;1.80;75.40;;;;;;5086518;28;20490;-89
2021/12/23 08:01:57;;;;;;;17.80;11.50;;;1.90;75.60;;;;;;5078451;28;20052;-90
2021/12/23 08:04:24;;;;;;;20.95;13.35;;;1.90;75.60;;;;;;5080095;28;20035;-84
2021/12/23 08:06:57;;;;;;;20.52;13.38;;;1.90;75.60;;;;;;5070583;28;20205;-87
2021/12/23 08:09:23;;;;;;;29.15;16.95;;;2.00;75.70;;;;;;5076551;28;20028;-90
2021/12/23 08:11:51;;;;;;;27.00;16.92;;;2.00;75.60;;;;;;5081449;28;20449;-89
2021/12/23 08:14:17;;;;;;;22.33;14.60;;;2.00;75.50;;;;;;5073571;28;20482;-83
2021/12/23 08:16:43;;;;;;;23.95;14.18;;;2.00;75.60;;;;;;5079910;28;20041;-87
2021/12/23 08:19:12;;;;;;;23.27;14.20;;;2.00;75.60;;;;;;5079485;28;20036;-90
2021/12/23 08:21:37;;;;;;;26.38;16.75;;;1.90;75.60;;;;;;5086932;28;20032;-84
2021/12/23 08:24:04;;;;;;;22.75;14.38;;;1.90;75.70;;;;;;5106189;28;20143;-84
2021/12/23 08:26:38;;;;;;;28.67;18.45;;;1.90;75.80;;;;;;5089296;28;20027;-83
2021/12/23 08:29:05;;;;;;;30.25;18.73;;;1.90;75.80;;;;;;5093239;28;20016;-85
2021/12/23 08:31:30;;;;;;;34.90;21.00;;;1.90;75.90;;;;;;5076341;28;20399;-82
2021/12/23 08:33:56;;;;;;;32.75;19.50;;;1.80;75.90;;;;;;5075935;28;20020;-83
2021/12/23 08:36:21;;;;;;;25.77;16.13;;;1.80;76.00;;;;;;5078661;28;20115;-90
2021/12/23 08:38:47;;;;;;;25.17;15.38;;;1.80;76.10;;;;;;5076214;28;20131;-88
2021/12/23 08:41:14;;;;;;;30.40;18.60;;;1.90;76.10;;;;;;5077907;28;20052;-90
2021/12/23 08:43:40;;;;;;;30.50;19.80;;;1.90;76.10;;;;;;5079674;28;20024;-93
2021/12/23 08:46:05;;;;;;;25.10;15.15;;;1.90;76.10;;;;;;5084080;28;20038;-89
2021/12/23 08:48:31;;;;;;;28.30;17.40;;;1.90;76.20;;;;;;5074931;28;20033;-84
2021/12/23 08:50:57;;;;;;;19.63;13.02;;;1.90;76.20;;;;;;5076195;28;20012;-85
2021/12/23 08:53:22;;;;;;;22.63;14.00;;;1.90;76.20;;;;;;5078683;28;20043;-86
2021/12/23 08:55:48;;;;;;;30.02;18.92;;;1.90;76.10;;;;;;5078301;28;20032;-87
2021/12/23 08:58:17;;;;;;;28.63;17.45;;;1.90;76.20;;;;;;5080731;28;20036;-90
2021/12/23 09:00:43;;;;;;;21.73;13.40;;;1.90;76.20;;;;;;5082753;28;20031;-88
2021/12/23 09:03:10;;;;;;;33.95;21.42;;;1.90;76.20;;;;;;5080736;28;20659;-84
2021/12/23 09:05:40;;;;;;;24.50;15.38;;;1.90;76.10;;;;;;5088323;28;20067;-91
2021/12/23 09:08:06;;;;;;;26.75;17.23;;;1.90;76.20;;;;;;5077248;28;20201;-87
2021/12/23 09:10:33;;;;;;;25.85;16.52;;;1.90;76.30;;;;;;5074857;28;20032;-86
2021/12/23 09:12:59;;;;;;;22.67;14.50;;;2.00;76.30;;;;;;5080553;28;20020;-89
2021/12/23 09:15:25;;;;;;;24.02;14.75;;;2.00;76.30;;;;;;5080901;28;20036;-82
2021/12/23 09:17:52;;;;;;;22.05;13.52;;;2.00;76.30;;;;;;5078451;28;20059;-88
2021/12/23 09:20:19;;;;;;;25.67;16.77;;;2.10;76.40;;;;;;5079049;28;20052;-89
2021/12/23 09:22:46;;;;;;;30.45;18.08;;;2.10;76.40;;;;;;5089750;28;20023;-87
2021/12/23 09:25:22;;;;;;;17.88;11.40;;;2.10;76.30;;;;;;5088750;28;20063;-86
2021/12/23 09:28:18;;;;;;;19.77;12.93;;;2.20;76.40;;;;;;5071293;28;20044;-85
2021/12/23 09:33:20;;;;;;;24.77;15.52;;;2.20;76.30;;;;;;5076280;28;20119;-88
2021/12/23 09:35:46;;;;;;;27.77;17.00;;;2.20;76.30;;;;;;5084033;28;20107;-84
2021/12/23 09:38:13;;;;;;;27.83;16.58;;;2.20;76.30;;;;;;5075378;28;20028;-83
2021/12/23 09:40:39;;;;;;;34.35;20.40;;;2.20;76.30;;;;;;5071623;28;20028;-84
2021/12/23 09:43:08;;;;;;;26.30;16.48;;;2.20;76.30;;;;;;5072873;28;20032;-83
2021/12/23 09:45:39;;;;;;;31.50;20.88;;;2.10;76.40;;;;;;5073385;28;20078;-82
2021/12/23 09:48:06;;;;;;;29.55;17.80;;;2.20;76.60;;;;;;5073833;28;21776;-81
2021/12/23 09:50:37;;;;;;;41.88;21.25;;;2.10;76.60;;;;;;5075878;28;20037;-82
2021/12/23 09:53:04;;;;;;;30.73;18.80;;;2.10;76.70;;;;;;5072472;28;20697;-85
2021/12/23 09:55:32;;;;;;;36.42;22.02;;;2.10;76.80;;;;;;5074006;28;20078;-82
2021/12/23 09:58:01;;;;;;;28.58;16.63;;;2.10;76.70;;;;;;5079453;28;20886;-89
2021/12/23 10:00:31;;;;;;;30.95;18.35;;;2.20;76.70;;;;;;5081043;28;20021;-89
2021/12/23 10:02:57;;;;;;;28.75;17.83;;;2.20;76.70;;;;;;5098737;28;20031;-86
2021/12/23 10:05:27;;;;;;;26.75;15.38;;;2.20;76.70;;;;;;5075406;28;20036;-89
2021/12/23 10:07:55;;;;;;;26.80;15.95;;;2.20;76.70;;;;;;5097754;28;20020;-85
2021/12/23 10:10:28;;;;;;;29.38;18.77;;;2.30;76.80;;;;;;5095246;28;20031;-86
2021/12/23 10:28:00;;;;;;;36.30;20.67;;;2.30;77.00;;;;;;5088588;28;20597;-92
2021/12/23 10:38:25;;;;;;;36.42;21.77;;;2.50;77.20;;;;;;5085455;28;20038;-94
2021/12/23 10:40:55;;;;;;;28.77;16.45;;;2.40;77.20;;;;;;5087141;28;20044;-94
2021/12/23 10:43:23;;;;;;;31.42;19.27;;;2.50;77.20;;;;;;5096852;28;20078;-88
2021/12/23 10:45:55;;;;;;;29.50;17.92;;;2.50;77.20;;;;;;5094491;28;20551;-89
2021/12/23 10:48:32;;;;;;;26.13;16.10;;;2.50;77.20;;;;;;5092265;28;20020;-94
2021/12/23 10:51:08;;;;;;;31.58;18.80;;;2.60;77.20;;;;;;5087938;28;20088;-90
2021/12/23 10:59:26;;;;;;;27.33;17.02;;;2.60;77.20;;;;;;5059728;28;20043;-85
2021/12/23 11:02:23;;;;;;;31.75;18.58;;;2.70;77.20;;;;;;5079728;28;20063;-84
2021/12/23 11:05:21;;;;;;;26.58;15.88;;;2.80;77.30;;;;;;5094725;28;20020;-86
2021/12/23 11:08:09;;;;;;;26.45;15.68;;;2.80;77.20;;;;;;5085160;28;20020;-86
2021/12/23 11:43:59;;;;;;;25.67;15.23;;;3.20;78.10;;;;;;5099899;28;20027;-93
2021/12/23 11:46:51;;;;;;;31.73;18.98;;;3.20;77.50;;;;;;5089318;28;20020;-89
2021/12/23 11:49:17;;;;;;;29.65;17.30;;;3.30;77.50;;;;;;5088809;28;20027;-90
2021/12/23 11:51:51;;;;;;;32.22;17.35;;;3.30;77.50;;;;;;5089442;28;20028;-87
2021/12/23 11:54:30;;;;;;;30.85;17.58;;;3.30;77.50;;;;;;5098647;28;20065;-93
2021/12/23 11:57:07;;;;;;;31.02;18.67;;;3.40;77.60;;;;;;5079085;28;20020;-91
2021/12/23 11:59:36;;;;;;;29.17;17.15;;;3.40;77.50;;;;;;5088481;28;20028;-85
2021/12/23 12:02:12;;;;;;;35.20;19.65;;;3.40;77.50;;;;;;5087134;28;20024;-84
2021/12/23 12:04:38;;;;;;;27.45;17.13;;;3.50;77.60;;;;;;5088602;28;20035;-81
2021/12/23 12:07:19;;;;;;;28.85;16.95;;;3.50;77.60;;;;;;5087445;28;20036;-77
2021/12/23 12:09:59;;;;;;;27.98;16.17;;;3.40;77.50;;;;;;5087335;28;20035;-80
2021/12/23 12:12:25;;;;;;;25.45;15.02;;;3.50;77.50;;;;;;5083827;28;20081;-80
2021/12/23 12:14:55;;;;;;;30.30;18.42;;;3.60;77.60;;;;;;5087519;28;20047;-79
2021/12/23 12:17:23;;;;;;;28.90;17.55;;;3.50;78.20;;;;;;5088493;28;20044;-81
2021/12/23 12:20:09;;;;;;;28.58;16.13;;;3.50;77.50;;;;;;5088337;28;20033;-81
2021/12/23 12:22:55;;;;;;;30.15;17.90;;;3.60;77.60;;;;;;5089248;28;20028;-81
2021/12/23 12:25:23;;;;;;;28.05;16.35;;;3.70;77.60;;;;;;5083315;28;20047;-81
2021/12/23 12:27:50;;;;;;;26.92;16.15;;;3.60;77.50;;;;;;5096249;28;20414;-81
2021/12/23 12:30:18;;;;;;;29.83;18.33;;;3.60;77.60;;;;;;5093677;28;20479;-82
2021/12/23 12:32:44;;;;;;;34.13;19.25;;;3.70;77.60;;;;;;5087505;28;20089;-83
2021/12/23 12:35:20;;;;;;;26.92;16.00;;;3.70;77.70;;;;;;5086153;28;20553;-83
2021/12/23 12:37:50;;;;;;;23.00;13.82;;;3.70;77.70;;;;;;5090179;28;20051;-83
2021/12/23 12:40:17;;;;;;;23.27;14.13;;;3.80;77.70;;;;;;5095739;28;20021;-84
2021/12/23 12:42:46;;;;;;;23.30;14.68;;;3.80;77.70;;;;;;5088863;28;20474;-82
2021/12/23 12:45:24;;;;;;;22.80;14.02;;;3.80;77.70;;;;;;5093388;28;20043;-84
2021/12/23 12:47:55;;;;;;;25.67;15.38;;;3.80;77.70;;;;;;5087840;28;20052;-85
2021/12/23 12:50:26;;;;;;;26.42;16.27;;;3.90;77.70;;;;;;5093803;28;20031;-83
2021/12/23 12:52:54;;;;;;;23.98;13.88;;;3.90;77.60;;;;;;5099011;28;20019;-83
2021/12/23 12:55:23;;;;;;;22.00;12.82;;;3.90;77.60;;;;;;5090341;28;20035;-83
2021/12/23 12:57:52;;;;;;;26.08;15.68;;;4.00;77.60;;;;;;5084098;28;20479;-84
2021/12/23 13:00:27;;;;;;;30.65;17.38;;;4.00;77.50;;;;;;5083916;28;20031;-89
2021/12/23 13:03:03;;;;;;;33.78;18.30;;;4.00;77.50;;;;;;5082001;28;20031;-88
2021/12/23 13:05:42;;;;;;;29.20;16.88;;;4.00;77.50;;;;;;5089621;28;20050;-88
2021/12/23 13:08:37;;;;;;;24.33;15.18;;;4.10;77.70;;;;;;5080479;28;20020;-82
2021/12/23 13:11:08;;;;;;;24.67;15.23;;;4.10;77.70;;;;;;5079046;28;20089;-89
2021/12/23 13:13:42;;;;;;;34.67;18.85;;;4.10;77.70;;;;;;5087112;28;20025;-85
2021/12/23 13:16:20;;;;;;;26.70;16.15;;;4.10;77.70;;;;;;5089812;28;20050;-86
2021/12/23 13:18:47;;;;;;;26.75;15.30;;;4.10;77.80;;;;;;5084921;28;20024;-86
2021/12/23 13:21:20;;;;;;;24.15;13.98;;;4.10;77.70;;;;;;5095662;28;20466;-89
2021/12/23 13:23:47;;;;;;;24.08;13.43;;;4.20;77.80;;;;;;5090640;28;20020;-89
2021/12/23 13:26:16;;;;;;;27.45;15.02;;;4.20;77.70;;;;;;5085225;28;20029;-85
2021/12/23 13:28:43;;;;;;;22.65;12.93;;;4.20;77.70;;;;;;5083363;28;20054;-83
2021/12/23 13:31:18;;;;;;;22.90;13.82;;;4.30;77.80;;;;;;5085286;28;20088;-87
2021/12/23 13:33:47;;;;;;;26.13;15.68;;;4.30;77.90;;;;;;5086884;28;20020;-88
2021/12/23 13:36:15;;;;;;;24.73;14.02;;;4.30;77.90;;;;;;5087289;28;20439;-88
2021/12/23 13:38:42;;;;;;;27.95;15.73;;;4.30;77.80;;;;;;5092126;28;20028;-86
2021/12/23 13:41:31;;;;;;;31.08;19.55;;;4.40;77.90;;;;;;5087872;28;20115;-87
2021/12/23 13:44:21;;;;;;;24.92;14.68;;;4.40;77.90;;;;;;5088313;28;20051;-89
2021/12/23 13:47:07;;;;;;;24.92;14.48;;;4.40;78.00;;;;;;5097385;28;20030;-92
2021/12/23 13:49:38;;;;;;;25.08;13.75;;;4.40;78.00;;;;;;5080991;28;20020;-92
2021/12/23 13:52:25;;;;;;;26.45;15.25;;;4.40;77.90;;;;;;5087862;28;20052;-92